Time;durP1;ratioP1;P1;durP2;ratioP2;P2;SDS_P1;SDS_P2;PMS_P1;PMS_P2;Temp;Humidity;BMP_temperature;BMP_pressure;BME280_temperature;BME280_humidity;BME280_pressure;Samples;Min_cycle;Max_cycle;Signal;HPM_P1;HPM_P2
2023/01/12 00:01:37;;;;;;;43.67;27.80;;;;;;;41.55;35.93;101210.22;5099051;28;20459;-91
2023/01/12 00:04:04;;;;;;;48.10;25.40;;;;;;;41.68;35.71;101203.00;5096035;28;20520;-82
2023/01/12 00:06:31;;;;;;;54.33;29.83;;;;;;;41.56;35.59;101200.94;5096683;28;20421;-84
2023/01/12 00:08:57;;;;;;;51.67;27.53;;;;;;;41.58;36.11;101195.97;5099397;28;20505;-85
2023/01/12 00:11:23;;;;;;;54.30;28.50;;;;;;;41.70;35.76;101205.38;5113307;28;20423;-83
2023/01/12 00:13:49;;;;;;;45.20;27.00;;;;;;;41.73;35.46;101200.06;5112233;28;20866;-84
2023/01/12 00:19:22;;;;;;;59.87;27.20;;;;;;;41.64;35.61;101195.78;5093627;28;20451;-83
2023/01/12 00:24:53;;;;;;;63.07;32.27;;;;;;;41.41;35.63;101187.81;5058237;28;20425;-84
2023/01/12 00:27:20;;;;;;;66.53;28.93;;;;;;;41.34;35.80;101185.59;5104983;28;20429;-83
2023/01/12 00:29:47;;;;;;;64.33;28.47;;;;;;;41.16;35.94;101183.97;5098057;28;20423;-83
2023/01/12 00:32:15;;;;;;;44.17;27.67;;;;;;;41.31;35.79;101185.38;5091459;28;20476;-83
2023/01/12 00:34:42;;;;;;;67.73;28.00;;;;;;;41.51;35.74;101184.75;5091722;28;20862;-83
2023/01/12 00:37:08;;;;;;;50.37;26.00;;;;;;;41.36;35.82;101176.28;5095711;28;20423;-84
2023/01/12 00:39:38;;;;;;;50.90;32.27;;;;;;;41.24;36.08;101166.81;5097627;28;20432;-85
2023/01/12 00:47:34;;;;;;;52.83;28.40;;;;;;;41.43;35.30;101158.34;5092522;28;20411;-83
2023/01/12 00:50:00;;;;;;;55.97;27.60;;;;;;;41.41;36.14;101144.25;5091402;28;20466;-84
2023/01/12 00:52:27;;;;;;;71.07;30.70;;;;;;;41.54;35.60;101145.19;5091245;28;20925;-83
2023/01/12 00:54:53;;;;;;;94.07;35.17;;;;;;;41.48;36.00;101133.66;5091397;28;20567;-83
2023/01/12 00:57:19;;;;;;;62.83;29.23;;;;;;;41.24;35.89;101122.47;5105803;28;20425;-83
2023/01/12 00:59:46;;;;;;;55.53;29.80;;;;;;;41.28;35.99;101123.44;5090934;28;20258;-83
2023/01/12 01:02:12;;;;;;;45.83;27.80;;;;;;;41.28;36.08;101112.53;5092463;28;20424;-83
2023/01/12 01:04:38;;;;;;;71.47;28.93;;;;;;;41.41;35.82;101111.56;5091738;28;20469;-83
2023/01/12 01:07:04;;;;;;;57.97;28.90;;;;;;;41.43;35.92;101105.81;5104309;28;20428;-84
2023/01/12 01:09:30;;;;;;;66.67;29.53;;;;;;;41.22;36.26;101101.03;5091097;28;20493;-84
2023/01/12 01:11:57;;;;;;;61.80;28.27;;;;;;;41.06;36.34;101098.00;5090970;28;20413;-84
2023/01/12 01:14:23;;;;;;;67.77;32.97;;;;;;;41.13;36.17;101086.66;5091055;28;20421;-83
2023/01/12 01:16:49;;;;;;;67.47;30.30;;;;;;;41.34;36.01;101087.56;5096800;28;20520;-80
2023/01/12 01:19:15;;;;;;;52.87;27.63;;;;;;;41.23;35.89;101074.59;5094600;28;20428;-87
2023/01/12 01:21:41;;;;;;;65.50;28.53;;;;;;;41.36;35.32;101070.91;5110536;28;20478;-86
2023/01/12 01:24:12;;;;;;;45.87;29.00;;;;;;;41.45;35.87;101065.44;5111366;28;20470;-88
2023/01/12 01:26:38;;;;;;;56.70;26.97;;;;;;;41.29;35.52;101065.94;5106835;28;20507;-83
2023/01/12 01:29:04;;;;;;;73.27;32.67;;;;;;;41.29;35.64;101060.50;5107365;28;20814;-85
2023/01/12 01:31:30;;;;;;;66.77;30.63;;;;;;;41.18;35.80;101056.53;5094793;28;20525;-84
2023/01/12 01:33:56;;;;;;;54.83;30.10;;;;;;;41.29;35.81;101057.78;5112397;28;20426;-84
2023/01/12 01:36:22;;;;;;;56.37;33.87;;;;;;;41.18;36.10;101050.28;5111121;28;20416;-84
2023/01/12 01:38:49;;;;;;;53.03;31.40;;;;;;;41.00;36.26;101050.31;5112354;28;20960;-84
2023/01/12 01:41:23;;;;;;;70.23;37.87;;;;;;;41.06;36.57;101054.47;5110443;28;20451;-84
2023/01/12 01:44:04;;;;;;;60.53;37.07;;;;;;;41.05;36.18;101047.44;5111062;28;20856;-84
2023/01/12 01:46:37;;;;;;;71.30;41.30;;;;;;;40.92;36.71;101042.19;5098276;28;20486;-82
2023/01/12 01:49:31;;;;;;;87.20;42.90;;;;;;;40.83;36.41;101041.38;5111512;28;20431;-84
2023/01/12 01:52:05;;;;;;;65.37;40.77;;;;;;;40.77;36.90;101032.59;5091479;28;20486;-88
2023/01/12 01:54:36;;;;;;;76.43;44.20;;;;;;;40.74;36.81;101030.50;5098775;28;20924;-87
2023/01/12 01:57:03;;;;;;;88.60;45.17;;;;;;;40.78;36.82;101031.47;5085142;28;20810;-83
2023/01/12 01:59:34;;;;;;;74.90;42.80;;;;;;;40.78;36.59;101028.72;5090563;28;20458;-83
2023/01/12 02:02:01;;;;;;;84.00;47.30;;;;;;;40.85;36.52;101030.97;5091605;28;20432;-84
2023/01/12 02:04:27;;;;;;;76.43;46.63;;;;;;;40.85;36.31;101028.25;5090769;28;20429;-84
2023/01/12 02:06:55;;;;;;;93.20;45.90;;;;;;;40.72;36.76;101033.53;5090514;28;20451;-84
2023/01/12 02:09:25;;;;;;;70.37;46.67;;;;;;;40.68;36.92;101027.13;5090645;28;20427;-84
2023/01/12 02:17:34;;;;;;;79.03;48.33;;;;;;;40.62;36.94;101022.97;5091819;28;20466;-84
2023/01/12 02:20:34;;;;;;;89.90;46.90;;;;;;;40.46;37.39;101019.94;5095570;28;20512;-84
2023/01/12 02:23:20;;;;;;;76.90;45.70;;;;;;;40.44;37.29;101015.91;5094937;28;20973;-82
2023/01/12 02:26:08;;;;;;;71.10;45.10;;;;;;;40.37;37.26;101010.16;5091668;28;20213;-84
2023/01/12 02:29:01;;;;;;;75.97;50.73;;;;;;;40.36;37.59;101008.56;5102377;28;20424;-86
2023/01/12 02:31:39;;;;;;;78.93;45.43;;;;;;;40.39;37.25;101002.47;5100185;28;20872;-82
2023/01/12 02:34:14;;;;;;;68.57;47.93;;;;;;;40.44;36.83;101007.75;5100247;28;20967;-83
2023/01/12 02:37:17;;;;;;;69.30;49.47;;;;;;;40.54;36.95;101007.47;5090464;28;20428;-84
2023/01/12 02:40:08;;;;;;;76.90;46.13;;;;;;;40.29;37.11;101007.13;5106800;28;20502;-83
2023/01/12 02:42:42;;;;;;;100.87;42.53;;;;;;;39.67;38.32;101001.09;5092893;28;20511;-84
2023/01/12 02:45:33;;;;;;;78.50;43.47;;;;;;;39.65;38.68;101001.38;5100192;28;20474;-83
2023/01/12 02:48:05;;;;;;;77.20;43.37;;;;;;;39.55;38.67;100993.50;5113648;28;20444;-83
2023/01/12 02:50:43;;;;;;;91.83;41.07;;;;;;;39.38;38.97;100988.81;5113477;28;20931;-83
2023/01/12 02:53:17;;;;;;;79.03;45.43;;;;;;;39.73;38.57;100992.47;5106919;28;20427;-83
2023/01/12 02:55:44;;;;;;;84.30;44.20;;;;;;;39.78;38.11;100979.84;5109984;28;20421;-82
2023/01/12 02:58:13;;;;;;;76.33;46.03;;;;;;;39.55;38.55;100990.78;5096727;28;20809;-82
2023/01/12 03:00:41;;;;;;;76.30;43.07;;;;;;;39.37;39.12;100995.34;5097383;28;20491;-82
2023/01/12 03:03:06;;;;;;;79.37;41.83;;;;;;;39.65;38.44;100981.56;5107199;28;20592;-82
2023/01/12 03:05:32;;;;;;;64.57;43.17;;;;;;;39.60;38.24;100981.72;5093304;28;20999;-83
2023/01/12 03:08:02;;;;;;;72.07;43.33;;;;;;;39.71;38.32;100983.03;5107486;28;20466;-82
2023/01/12 03:10:37;;;;;;;65.53;40.40;;;;;;;39.86;37.98;100974.44;5112448;28;20167;-83
2023/01/12 03:13:09;;;;;;;67.87;40.53;;;;;;;39.73;38.28;100984.34;5114733;28;20903;-82
2023/01/12 03:15:42;;;;;;;64.57;41.17;;;;;;;39.43;38.75;100977.81;5114012;28;20935;-82
2023/01/12 03:18:16;;;;;;;69.53;45.00;;;;;;;39.59;38.72;100980.09;5113016;28;20412;-77
2023/01/12 03:20:58;;;;;;;77.57;39.20;;;;;;;39.80;38.20;100975.72;5104327;28;20612;-77
2023/01/12 03:23:36;;;;;;;54.00;38.20;;;;;;;39.84;37.92;100970.44;5100793;28;20408;-78
2023/01/12 03:26:04;;;;;;;91.83;42.57;;;;;;;39.93;38.11;100969.34;5092660;28;20432;-77
2023/01/12 03:28:35;;;;;;;68.87;38.57;;;;;;;39.67;38.14;100972.03;5105230;28;20431;-77
2023/01/12 03:31:12;;;;;;;73.17;39.50;;;;;;;39.48;38.50;100974.97;5096022;28;20475;-77
2023/01/12 03:33:43;;;;;;;79.17;37.77;;;;;;;39.60;38.19;100971.69;5095732;28;20439;-77
2023/01/12 03:36:23;;;;;;;59.37;39.37;;;;;;;39.72;38.21;100963.72;5113142;28;20419;-78
2023/01/12 03:38:58;;;;;;;60.70;37.43;;;;;;;39.91;38.10;100963.44;5092733;28;20424;-78
2023/01/12 03:41:44;;;;;;;62.03;37.87;;;;;;;39.90;37.65;100963.72;5094291;28;20494;-80
2023/01/12 03:44:19;;;;;;;59.47;38.70;;;;;;;39.71;37.98;100967.53;5112621;28;20428;-80
2023/01/12 03:47:02;;;;;;;65.60;40.23;;;;;;;39.77;38.28;100976.34;5112390;28;20802;-78
2023/01/12 03:49:42;;;;;;;57.27;37.63;;;;;;;39.90;38.02;100963.72;5106399;28;20422;-78
2023/01/12 03:52:09;;;;;;;77.87;38.13;;;;;;;39.84;37.71;100965.84;5104325;28;20420;-78
2023/01/12 03:54:38;;;;;;;56.00;36.50;;;;;;;39.78;37.84;100971.69;5107340;28;20421;-78
2023/01/12 03:57:05;;;;;;;71.57;39.90;;;;;;;39.83;37.74;100974.28;5071725;28;20453;-79
2023/01/12 03:59:31;;;;;;;65.80;38.53;;;;;;;39.86;37.84;100976.38;5077199;28;20412;-78
2023/01/12 04:01:57;;;;;;;66.43;39.47;;;;;;;39.72;37.82;100979.22;5111309;28;20509;-79
2023/01/12 04:04:23;;;;;;;63.20;38.80;;;;;;;39.78;38.29;100972.53;5095160;28;20439;-79
2023/01/12 04:06:49;;;;;;;66.57;37.50;;;;;;;39.74;37.96;100980.50;5091915;28;20983;-78
2023/01/12 04:09:15;;;;;;;63.10;35.57;;;;;;;39.60;38.52;100976.28;5092253;28;20425;-81
2023/01/12 04:14:26;;;;;;;79.77;33.83;;;;;;;39.49;38.12;100975.75;5095743;28;20412;-80
2023/01/12 04:16:52;;;;;;;71.57;41.30;;;;;;;39.55;38.17;100974.50;5093449;28;20937;-79
2023/01/12 04:19:18;;;;;;;79.70;44.33;;;;;;;39.70;37.96;100976.81;5092402;28;20451;-79
2023/01/12 04:24:28;;;;;;;69.33;45.57;;;;;;;39.81;37.87;100966.44;5093301;28;20189;-77
2023/01/12 04:26:54;;;;;;;80.77;53.33;;;;;;;39.94;37.66;100968.22;5091976;28;20417;-79
2023/01/12 04:29:20;;;;;;;84.43;47.30;;;;;;;40.05;37.72;100976.09;5102343;28;20583;-79
2023/01/12 04:31:46;;;;;;;77.27;44.43;;;;;;;40.05;37.17;100981.53;5108835;28;20855;-79
2023/01/12 04:34:12;;;;;;;75.53;40.43;;;;;;;40.05;37.61;100981.53;5100971;28;20201;-79
2023/01/12 04:36:41;;;;;;;70.17;45.63;;;;;;;40.09;37.50;100980.59;5108566;28;20425;-78
2023/01/12 04:39:08;;;;;;;73.93;40.60;;;;;;;40.03;37.57;100981.84;5091510;28;20421;-79
2023/01/12 04:41:34;;;;;;;70.50;43.37;;;;;;;40.08;37.16;100975.44;5092702;28;20451;-81
2023/01/12 04:43:59;;;;;;;76.93;41.80;;;;;;;40.15;37.41;100979.31;5098598;28;20408;-79
2023/01/12 04:46:25;;;;;;;66.97;41.37;;;;;;;40.07;37.04;100979.28;5101537;28;20481;-81
2023/01/12 04:48:51;;;;;;;58.33;38.50;;;;;;;40.06;37.20;100977.69;5102670;28;20181;-80
2023/01/12 04:51:17;;;;;;;72.13;40.93;;;;;;;39.97;37.63;100983.09;5097935;28;20420;-81
2023/01/12 04:53:43;;;;;;;63.10;36.13;;;;;;;39.87;37.59;100969.81;5111468;28;20461;-78
2023/01/12 04:56:09;;;;;;;78.07;41.47;;;;;;;39.89;37.74;100975.72;5110891;28;20666;-78
2023/01/12 04:58:35;;;;;;;62.30;39.03;;;;;;;40.00;37.57;100974.31;5111270;28;20186;-77
2023/01/12 05:01:13;;;;;;;66.50;41.27;;;;;;;40.13;37.14;100976.09;5110799;28;20463;-77
2023/01/12 05:03:39;;;;;;;76.27;39.50;;;;;;;39.93;37.47;100965.84;5098611;28;20998;-78
2023/01/12 05:06:05;;;;;;;71.70;46.40;;;;;;;39.71;38.07;100970.25;5096724;28;21057;-77
2023/01/12 05:11:16;;;;;;;62.90;40.27;;;;;;;39.63;37.77;100975.66;5095000;28;20846;-79
2023/01/12 05:13:41;;;;;;;68.13;43.80;;;;;;;39.53;37.83;100982.16;5101986;28;20419;-81
2023/01/12 05:16:10;;;;;;;82.67;44.67;;;;;;;39.41;38.37;100984.66;5105855;28;20409;-80
2023/01/12 05:18:36;;;;;;;69.03;44.47;;;;;;;39.11;38.68;100986.28;5111088;28;20438;-78
2023/01/12 05:21:03;;;;;;;87.60;42.10;;;;;;;39.20;38.86;100989.84;5092326;28;20464;-78
2023/01/12 05:23:29;;;;;;;63.27;43.80;;;;;;;39.02;39.03;100988.13;5074495;28;20429;-78
2023/01/12 05:25:59;;;;;;;72.30;41.20;;;;;;;38.99;39.06;101003.13;5087629;28;20420;-78
2023/01/12 05:28:26;;;;;;;77.20;42.40;;;;;;;39.19;38.77;101002.63;5090569;28;20428;-81
2023/01/12 05:30:53;;;;;;;57.20;41.63;;;;;;;39.46;38.49;101006.25;5103738;28;20461;-78
2023/01/12 05:33:19;;;;;;;73.20;46.27;;;;;;;39.50;38.21;101007.22;5096371;28;20420;-78
2023/01/12 05:35:45;;;;;;;72.37;40.90;;;;;;;39.62;37.87;101017.53;5093720;28;20432;-78
2023/01/12 05:38:11;;;;;;;67.73;43.97;;;;;;;39.68;37.98;101011.63;5095945;28;20408;-79
2023/01/12 05:40:37;;;;;;;81.10;48.33;;;;;;;39.53;38.19;101020.16;5099914;28;20463;-76
2023/01/12 05:45:48;;;;;;;80.30;48.20;;;;;;;39.70;37.63;101020.25;5096375;28;20416;-79
2023/01/12 05:48:13;;;;;;;83.10;50.53;;;;;;;39.49;37.89;101021.91;5097214;28;20443;-78
2023/01/12 05:50:39;;;;;;;82.50;50.83;;;;;;;39.59;37.74;101023.53;5100273;28;20937;-76
2023/01/12 05:53:05;;;;;;;79.50;50.67;;;;;;;39.52;38.08;101026.69;5101070;28;20216;-76
2023/01/12 05:55:31;;;;;;;93.77;48.67;;;;;;;39.44;37.98;101024.75;5108075;28;20562;-79
2023/01/12 05:57:58;;;;;;;73.23;50.17;;;;;;;39.31;38.07;101031.09;5100993;28;20767;-87
2023/01/12 06:00:24;;;;;;;87.43;47.37;;;;;;;39.38;38.28;101034.94;5101784;28;20238;-89
2023/01/12 06:02:50;;;;;;;105.70;49.97;;;;;;;39.36;37.94;101028.25;5107822;28;20450;-82
2023/01/12 06:05:16;;;;;;;102.80;61.40;;;;;;;39.29;38.37;101027.88;5103174;28;20939;-84
2023/01/12 06:07:42;;;;;;;109.40;61.77;;;;;;;39.31;38.58;101036.50;5104958;28;20236;-84
2023/01/12 06:10:09;;;;;;;89.67;54.37;;;;;;;39.11;39.07;101035.09;5114139;28;20426;-81
2023/01/12 06:15:19;;;;;;;92.73;52.50;;;;;;;39.32;39.15;101044.34;5103901;28;20502;-80
2023/01/12 06:17:45;;;;;;;81.77;54.23;;;;;;;39.39;38.57;101052.03;5090634;28;20460;-78
2023/01/12 06:20:15;;;;;;;117.13;52.67;;;;;;;39.30;38.83;101060.16;5107376;28;20982;-78
2023/01/12 06:22:42;;;;;;;107.63;50.37;;;;;;;39.01;39.16;101063.28;5098830;28;20445;-78
2023/01/12 06:25:10;;;;;;;105.47;49.00;;;;;;;38.44;40.04;101071.88;5107492;28;20416;-75
2023/01/12 06:27:37;;;;;;;92.00;47.83;;;;;;;38.63;40.23;101076.34;5109305;27;20448;-72
2023/01/12 06:30:05;;;;;;;90.43;48.67;;;;;;;38.76;39.87;101074.75;5112052;28;20420;-74
2023/01/12 06:32:31;;;;;;;94.47;48.03;;;;;;;39.15;39.40;101076.75;5093496;28;20956;-81
2023/01/12 06:34:57;;;;;;;94.20;52.30;;;;;;;39.11;39.12;101076.59;5105173;28;20427;-81
2023/01/12 06:37:26;;;;;;;86.87;54.57;;;;;;;39.40;39.05;101087.00;5101223;28;20434;-75
2023/01/12 06:39:52;;;;;;;97.83;57.10;;;;;;;39.53;38.40;101084.50;5099226;28;20426;-78
2023/01/12 06:42:27;;;;;;;94.97;58.27;;;;;;;39.58;38.21;101098.75;5109821;28;20428;-83
2023/01/12 06:44:54;;;;;;;103.20;52.90;;;;;;;39.47;38.39;101100.97;5106397;28;20209;-85
2023/01/12 06:47:20;;;;;;;106.13;50.70;;;;;;;39.44;38.61;101106.19;5103181;28;20436;-78
2023/01/12 06:49:46;;;;;;;99.07;50.63;;;;;;;39.52;38.50;101112.78;5105659;28;20436;-75
2023/01/12 06:52:12;;;;;;;107.77;53.83;;;;;;;39.43;38.53;101113.53;5098882;28;20429;-76
2023/01/12 06:54:38;;;;;;;119.03;61.60;;;;;;;39.53;38.45;101122.50;5101868;28;20460;-76
2023/01/12 06:57:04;;;;;;;91.70;54.40;;;;;;;39.49;38.52;101120.44;5100921;28;20417;-80
2023/01/12 06:59:30;;;;;;;118.40;55.80;;;;;;;39.45;38.47;101135.72;5111303;28;20212;-83
2023/01/12 07:01:56;;;;;;;98.50;55.90;;;;;;;39.75;38.14;101126.03;5106365;28;20264;-85
2023/01/12 07:04:22;;;;;;;79.03;53.13;;;;;;;39.74;37.40;101135.28;5110917;28;20178;-85
2023/01/12 07:06:48;;;;;;;115.63;65.70;;;;;;;39.66;37.42;101137.97;5110322;28;20182;-84
2023/01/12 07:09:14;;;;;;;81.90;54.20;;;;;;;39.66;37.54;101133.34;5110544;28;20428;-83
2023/01/12 07:11:40;;;;;;;83.47;52.40;;;;;;;39.80;37.46;101129.72;5112775;28;20241;-85
2023/01/12 07:14:06;;;;;;;91.93;51.53;;;;;;;39.71;37.49;101132.38;5110902;28;20427;-83
2023/01/12 07:16:32;;;;;;;77.90;45.80;;;;;;;39.66;37.35;101138.78;5110448;28;20946;-84
2023/01/12 07:18:58;;;;;;;93.37;52.07;;;;;;;39.68;37.55;101138.44;5111476;28;20432;-84
2023/01/12 07:21:24;;;;;;;86.73;52.67;;;;;;;39.82;37.37;101139.16;5112996;28;20464;-86
2023/01/12 07:23:50;;;;;;;87.07;50.33;;;;;;;39.86;37.28;101142.06;5112030;28;20186;-84
2023/01/12 07:26:17;;;;;;;86.73;53.17;;;;;;;39.79;37.55;101147.13;5112182;28;20431;-90
2023/01/12 07:28:43;;;;;;;96.93;50.27;;;;;;;39.42;37.84;101144.50;5114597;28;20178;-89
2023/01/12 07:31:09;;;;;;;90.20;52.73;;;;;;;39.53;38.05;101152.38;5103198;28;20463;-90
2023/01/12 07:33:37;;;;;;;85.47;51.50;;;;;;;39.68;37.60;101157.47;5096421;28;20420;-86
2023/01/12 07:36:04;;;;;;;92.30;53.97;;;;;;;39.28;37.92;101159.25;5111517;28;20247;-84
2023/01/12 07:38:30;;;;;;;87.67;54.13;;;;;;;39.01;38.48;101170.97;5110551;28;20424;-83
2023/01/12 07:41:03;;;;;;;98.80;52.63;;;;;;;38.72;39.28;101157.78;5110806;28;20467;-85
2023/01/12 07:43:29;;;;;;;85.97;54.93;;;;;;;38.89;39.14;101163.38;5110395;28;20925;-83
2023/01/12 07:45:59;;;;;;;99.47;51.47;;;;;;;38.73;39.13;101175.66;5097425;28;20459;-82
2023/01/12 07:48:26;;;;;;;89.17;49.00;;;;;;;38.90;38.83;101173.91;5098382;28;20470;-88
2023/01/12 07:50:52;;;;;;;99.43;57.43;;;;;;;39.02;38.65;101176.09;5112226;28;20435;-87
2023/01/12 07:53:19;;;;;;;98.50;51.27;;;;;;;38.76;38.88;101169.66;5111947;28;20448;-86
2023/01/12 07:55:45;;;;;;;108.10;50.93;;;;;;;38.26;39.70;101178.50;5111324;28;20519;-86
2023/01/12 07:58:11;;;;;;;102.17;50.37;;;;;;;38.15;40.18;101177.06;5112206;28;20519;-90
2023/01/12 08:00:37;;;;;;;116.03;56.00;;;;;;;38.33;39.44;101175.38;5111185;28;20456;-86
2023/01/12 08:03:09;;;;;;;176.77;127.67;;;;;;;38.11;40.21;101176.03;5111761;28;20424;-82
2023/01/12 08:05:37;;;;;;;113.43;70.40;;;;;;;38.40;39.99;101178.47;5112310;28;20201;-82
2023/01/12 08:08:04;;;;;;;114.57;67.67;;;;;;;38.37;39.85;101179.09;5101763;28;20422;-83
2023/01/12 08:10:30;;;;;;;108.07;62.70;;;;;;;38.41;39.70;101175.47;5112206;28;20482;-83
2023/01/12 08:12:56;;;;;;;104.93;51.00;;;;;;;37.71;41.00;101180.25;5112066;28;20413;-82
2023/01/12 08:15:24;;;;;;;94.50;53.87;;;;;;;38.24;39.96;101182.56;5112283;28;20423;-82
2023/01/12 08:17:59;;;;;;;104.13;52.53;;;;;;;38.18;40.08;101185.38;5077906;28;20440;-82
2023/01/12 08:20:37;;;;;;;75.13;46.70;;;;;;;38.16;40.23;101184.88;5093292;28;20464;-82
2023/01/12 08:23:17;;;;;;;85.53;54.80;;;;;;;37.82;40.60;101184.44;5087978;28;20427;-81
2023/01/12 08:25:47;;;;;;;93.60;51.60;;;;;;;37.90;40.56;101184.53;5093989;28;20436;-79
2023/01/12 08:28:18;;;;;;;107.70;61.13;;;;;;;38.12;40.24;101181.19;5102059;28;20417;-79
2023/01/12 08:30:47;;;;;;;86.17;53.27;;;;;;;38.76;39.28;101183.19;5108984;28;20438;-78
2023/01/12 08:33:14;;;;;;;89.37;51.20;;;;;;;38.61;39.00;101184.28;5094529;28;20444;-78
2023/01/12 08:35:41;;;;;;;87.93;52.67;;;;;;;38.94;38.90;101191.19;5086672;28;20820;-79
2023/01/12 08:38:07;;;;;;;98.43;59.10;;;;;;;39.09;38.43;101181.88;5091680;28;20456;-80
2023/01/12 08:44:00;;;;;;;93.87;51.57;;;;;;;38.74;38.98;101191.66;5111801;28;20414;-79
2023/01/12 08:46:06;;;;;;;111.77;60.20;;;;;;;38.61;39.62;101179.69;5112124;28;20469;-79
2023/01/12 08:48:37;;;;;;;103.87;58.20;;;;;;;38.75;39.09;101181.59;5111406;28;20420;-79
2023/01/12 08:51:04;;;;;;;98.00;57.50;;;;;;;38.46;39.50;101181.91;5110897;28;20447;-80
2023/01/12 08:53:30;;;;;;;82.83;54.83;;;;;;;38.61;39.38;101173.44;5094421;28;20424;-79
2023/01/12 08:55:56;;;;;;;93.93;50.63;;;;;;;38.65;39.08;101174.44;5110880;28;20943;-78
2023/01/12 08:58:22;;;;;;;91.20;54.53;;;;;;;38.76;39.05;101173.16;5110996;28;20413;-80
2023/01/12 09:00:48;;;;;;;93.00;52.10;;;;;;;38.79;38.85;101169.81;5101513;28;20890;-74
2023/01/12 09:03:14;;;;;;;83.70;52.80;;;;;;;38.69;39.05;101170.81;5090997;28;20520;-74
2023/01/12 09:05:40;;;;;;;107.57;58.17;;;;;;;38.85;39.04;101163.16;5091449;28;20447;-74
2023/01/12 09:08:06;;;;;;;98.70;48.43;;;;;;;39.32;37.89;101165.66;5095390;28;20444;-84
2023/01/12 09:10:32;;;;;;;103.53;51.67;;;;;;;39.12;38.17;101166.94;5101427;28;20181;-81
2023/01/12 09:12:58;;;;;;;80.70;47.40;;;;;;;39.17;37.73;101172.28;5078943;28;20495;-86
2023/01/12 09:15:24;;;;;;;85.97;48.60;;;;;;;39.23;37.45;101174.56;5111364;28;20880;-83
2023/01/12 09:17:54;;;;;;;103.57;48.80;;;;;;;38.83;38.21;101167.31;5096651;28;20951;-87
2023/01/12 09:20:20;;;;;;;90.93;48.70;;;;;;;38.80;38.28;101160.59;5111157;28;20463;-85
2023/01/12 09:22:46;;;;;;;89.83;43.77;;;;;;;38.70;38.61;101166.22;5108465;28;20496;-86
2023/01/12 09:25:12;;;;;;;82.33;48.27;;;;;;;39.19;38.28;101165.41;5108686;28;20958;-84
2023/01/12 09:27:38;;;;;;;60.47;41.37;;;;;;;39.25;37.70;101168.81;5102154;28;20468;-78
2023/01/12 09:30:05;;;;;;;91.97;49.30;;;;;;;39.22;37.86;101172.94;5111951;28;20419;-85
2023/01/12 09:32:32;;;;;;;113.57;49.30;;;;;;;39.30;38.01;101162.47;5110869;28;20653;-83
2023/01/12 09:35:00;;;;;;;69.97;42.40;;;;;;;39.05;38.25;101169.28;5110788;28;20915;-84
2023/01/12 09:37:27;;;;;;;76.03;43.50;;;;;;;38.94;38.34;101152.41;5113423;28;20447;-84
2023/01/12 09:39:53;;;;;;;76.30;43.53;;;;;;;38.93;38.52;101148.09;5111758;28;20447;-84
2023/01/12 09:48:03;;;;;;;89.17;42.70;;;;;;;39.02;38.03;101140.03;5108689;28;20501;-83
2023/01/12 09:50:38;;;;;;;75.93;42.70;;;;;;;39.11;37.67;101136.28;5112608;28;20447;-83
2023/01/12 09:53:27;;;;;;;75.03;42.27;;;;;;;39.61;37.20;101130.75;5109338;28;20494;-84
2023/01/12 09:56:25;;;;;;;86.47;45.40;;;;;;;39.48;37.02;101121.56;5095120;28;20518;-83
2023/01/12 09:59:39;;;;;;;84.73;43.33;;;;;;;39.60;36.97;101118.28;5094786;28;20822;-83
2023/01/12 10:02:11;;;;;;;71.23;42.83;;;;;;;39.99;36.29;101112.06;5114646;28;20451;-84
2023/01/12 10:04:37;;;;;;;106.60;54.07;;;;;;;40.06;35.66;101114.34;5099069;28;20811;-86
2023/01/12 10:07:03;;;;;;;282.47;148.23;;;;;;;40.12;36.18;101112.28;5095731;28;20912;-84
2023/01/12 10:09:29;;;;;;;239.43;125.23;;;;;;;40.34;35.18;101112.19;5093881;28;20431;-83
2023/01/12 10:12:19;;;;;;;451.37;212.17;;;;;;;40.21;35.29;101107.69;5103825;28;20498;-87
2023/01/12 10:15:06;;;;;;;549.23;282.20;;;;;;;40.08;35.73;101103.94;5115076;27;20442;-86
2023/01/12 10:17:43;;;;;;;264.23;150.67;;;;;;;40.25;35.33;101105.91;5114393;28;20419;-84
2023/01/12 10:20:28;;;;;;;114.63;73.27;;;;;;;40.46;35.69;101101.50;5106111;28;20812;-91
2023/01/12 10:23:06;;;;;;;97.10;47.73;;;;;;;40.09;35.54;101104.78;5121040;27;20411;-91
2023/01/12 10:25:39;;;;;;;92.70;48.80;;;;;;;39.78;35.85;101100.16;5101530;28;20513;-90
2023/01/12 10:28:18;;;;;;;74.37;40.17;;;;;;;40.24;34.88;101096.19;5097229;28;20460;-84
2023/01/12 10:30:45;;;;;;;78.47;52.23;;;;;;;40.37;34.85;101102.59;5129624;27;20481;-84
2023/01/12 10:33:14;;;;;;;96.17;46.23;;;;;;;40.49;34.82;101094.63;5114062;28;20456;-84
2023/01/12 10:36:17;;;;;;;88.13;43.60;;;;;;;40.60;34.76;101093.22;5114194;28;20420;-84
2023/01/12 10:38:56;;;;;;;64.87;40.47;;;;;;;40.81;34.17;101090.63;5109362;28;20815;-86
2023/01/12 10:41:27;;;;;;;93.87;44.50;;;;;;;40.97;33.74;101083.63;5097942;28;20464;-87
2023/01/12 10:43:59;;;;;;;98.53;44.93;;;;;;;41.24;33.76;101079.72;5103772;28;20839;-88
2023/01/12 10:46:32;;;;;;;86.37;43.20;;;;;;;40.64;34.05;101080.59;5100597;28;20432;-87
2023/01/12 10:49:22;;;;;;;68.90;43.87;;;;;;;41.24;33.90;101074.28;5113344;28;20448;-86
2023/01/12 10:51:55;;;;;;;58.63;36.27;;;;;;;41.30;33.21;101072.97;5093869;28;20436;-86
2023/01/12 10:54:30;;;;;;;60.17;43.70;;;;;;;40.84;33.76;101067.44;5113662;28;20458;-84
2023/01/12 10:56:59;;;;;;;74.73;44.13;;;;;;;41.43;33.30;101063.03;5103435;28;20425;-84
2023/01/12 10:59:28;;;;;;;69.20;44.90;;;;;;;41.50;31.92;101057.91;5106618;28;20431;-84
2023/01/12 11:02:15;;;;;;;102.67;44.20;;;;;;;41.61;32.30;101048.22;5114453;28;20546;-84
2023/01/12 11:04:48;;;;;;;82.70;46.20;;;;;;;42.02;31.94;101046.75;5113508;28;20428;-88
2023/01/12 11:07:21;;;;;;;108.03;50.50;;;;;;;42.00;31.85;101040.06;5111890;28;20850;-89
2023/01/12 11:09:47;;;;;;;78.07;39.73;;;;;;;41.85;30.93;101033.22;5097186;28;20417;-87
2023/01/12 11:12:26;;;;;;;105.60;48.33;;;;;;;41.98;30.66;101032.19;5105463;28;20939;-86
2023/01/12 11:15:01;;;;;;;87.83;42.37;;;;;;;41.99;30.63;101038.44;5100679;28;20443;-89
2023/01/12 11:17:55;;;;;;;65.53;44.13;;;;;;;42.07;31.13;101030.22;5112226;28;20423;-86
2023/01/12 11:20:39;;;;;;;75.67;41.43;;;;;;;42.27;30.18;101036.03;5112799;28;20459;-86
2023/01/12 11:23:13;;;;;;;95.37;41.97;;;;;;;42.33;30.39;101029.25;5098317;28;20448;-85
2023/01/12 11:25:44;;;;;;;75.33;38.80;;;;;;;42.24;30.35;101021.16;5108377;28;20431;-84
2023/01/12 11:28:18;;;;;;;110.33;47.33;;;;;;;42.35;30.32;101018.78;5114316;27;20443;-84
2023/01/12 11:31:04;;;;;;;96.43;44.60;;;;;;;42.10;31.01;101007.72;5107724;28;20953;-84
2023/01/12 11:33:36;;;;;;;84.40;39.70;;;;;;;42.19;30.48;101005.00;5099386;28;20510;-84
2023/01/12 11:36:29;;;;;;;67.53;44.33;;;;;;;42.29;31.41;101010.03;5107531;28;20444;-87
2023/01/12 11:39:02;;;;;;;78.63;42.97;;;;;;;42.48;31.78;101000.56;5101872;28;20431;-84
2023/01/12 11:41:40;;;;;;;82.30;42.63;;;;;;;42.43;31.51;100995.34;5113856;28;20547;-84
2023/01/12 11:44:29;;;;;;;77.93;39.77;;;;;;;42.18;30.45;100994.44;5112777;28;20435;-87
2023/01/12 11:47:12;;;;;;;79.53;45.10;;;;;;;42.56;30.94;100995.03;5100369;28;20430;-87
2023/01/12 11:50:14;;;;;;;86.63;41.00;;;;;;;42.58;27.47;100986.56;5112678;28;20450;-86
2023/01/12 11:52:41;;;;;;;110.67;39.77;;;;;;;42.13;24.71;100981.75;5095246;28;20454;-86
2023/01/12 11:55:13;;;;;;;130.87;55.57;;;;;;;42.37;27.52;100983.84;5103623;28;20515;-86
2023/01/12 11:57:55;;;;;;;84.90;46.80;;;;;;;42.41;31.26;100984.75;5110327;28;20440;-86
2023/01/12 12:00:32;;;;;;;85.87;50.43;;;;;;;41.85;32.85;100968.63;5105240;28;20542;-87
2023/01/12 12:03:17;;;;;;;110.20;45.27;;;;;;;41.96;24.72;100962.81;5112107;28;20428;-88